sensor_id;sensor_type;location;lat;lon;timestamp;pressure;altitude;pressure_sealevel;temperature;humidity
6090;BME280;3073;42.660;23.316;2022-07-06T00:01:54;94441.38;;;19.70;100.00
6090;BME280;3073;42.660;23.316;2022-07-06T00:04:22;94434.00;;;19.63;100.00
6090;BME280;3073;42.660;23.316;2022-07-06T00:06:50;94438.91;;;19.65;100.00
6090;BME280;3073;42.660;23.316;2022-07-06T00:09:18;94436.31;;;19.65;100.00
6090;BME280;3073;42.660;23.316;2022-07-06T00:11:52;94437.81;;;19.66;100.00
6090;BME280;3073;42.660;23.316;2022-07-06T00:14:19;94447.19;;;19.75;100.00
6090;BME280;3073;42.660;23.316;2022-07-06T00:16:46;94457.31;;;19.63;100.00
6090;BME280;3073;42.660;23.316;2022-07-06T00:19:13;94478.09;;;19.58;100.00
6090;BME280;3073;42.660;23.316;2022-07-06T00:21:42;94477.06;;;19.59;100.00
6090;BME280;3073;42.660;23.316;2022-07-06T00:24:08;94481.25;;;19.69;100.00
6090;BME280;3073;42.660;23.316;2022-07-06T00:26:35;94475.47;;;19.72;100.00
6090;BME280;3073;42.660;23.316;2022-07-06T00:29:02;94490.50;;;19.83;100.00
6090;BME280;3073;42.660;23.316;2022-07-06T00:31:29;94488.38;;;19.85;100.00
6090;BME280;3073;42.660;23.316;2022-07-06T00:33:56;94495.28;;;19.68;100.00
6090;BME280;3073;42.660;23.316;2022-07-06T00:36:23;94489.19;;;19.72;100.00
6090;BME280;3073;42.660;23.316;2022-07-06T00:38:51;94493.91;;;19.70;100.00
6090;BME280;3073;42.660;23.316;2022-07-06T00:41:18;94500.50;;;19.76;100.00
6090;BME280;3073;42.660;23.316;2022-07-06T00:43:49;94489.22;;;19.59;100.00
6090;BME280;3073;42.660;23.316;2022-07-06T00:46:17;94482.41;;;19.63;100.00
6090;BME280;3073;42.660;23.316;2022-07-06T00:48:44;94487.41;;;19.59;100.00
6090;BME280;3073;42.660;23.316;2022-07-06T00:51:12;94485.81;;;19.49;100.00
6090;BME280;3073;42.660;23.316;2022-07-06T00:53:40;94482.00;;;19.47;100.00
6090;BME280;3073;42.660;23.316;2022-07-06T00:56:09;94472.94;;;19.58;100.00
6090;BME280;3073;42.660;23.316;2022-07-06T00:58:36;94470.47;;;19.53;100.00
6090;BME280;3073;42.660;23.316;2022-07-06T01:01:03;94464.25;;;19.54;100.00
6090;BME280;3073;42.660;23.316;2022-07-06T01:03:30;94452.78;;;19.69;100.00
6090;BME280;3073;42.660;23.316;2022-07-06T01:05:57;94436.13;;;19.61;100.00
6090;BME280;3073;42.660;23.316;2022-07-06T01:08:24;94432.06;;;19.69;100.00
6090;BME280;3073;42.660;23.316;2022-07-06T01:10:51;94425.06;;;19.47;100.00
6090;BME280;3073;42.660;23.316;2022-07-06T01:13:19;94434.00;;;19.27;100.00
6090;BME280;3073;42.660;23.316;2022-07-06T01:15:46;94434.56;;;19.24;100.00
6090;BME280;3073;42.660;23.316;2022-07-06T01:18:14;94437.69;;;19.35;100.00
6090;BME280;3073;42.660;23.316;2022-07-06T01:20:42;94428.50;;;19.42;100.00
6090;BME280;3073;42.660;23.316;2022-07-06T01:23:09;94425.81;;;19.47;100.00
6090;BME280;3073;42.660;23.316;2022-07-06T01:25:36;94430.97;;;19.61;100.00
6090;BME280;3073;42.660;23.316;2022-07-06T01:28:03;94438.22;;;19.59;100.00
6090;BME280;3073;42.660;23.316;2022-07-06T01:30:30;94439.28;;;19.58;100.00
6090;BME280;3073;42.660;23.316;2022-07-06T01:32:56;94439.63;;;19.43;100.00
6090;BME280;3073;42.660;23.316;2022-07-06T01:35:24;94434.44;;;19.43;100.00
6090;BME280;3073;42.660;23.316;2022-07-06T01:37:54;94440.41;;;19.43;100.00
6090;BME280;3073;42.660;23.316;2022-07-06T01:40:21;94443.06;;;19.38;100.00
6090;BME280;3073;42.660;23.316;2022-07-06T01:42:47;94434.06;;;19.36;100.00
6090;BME280;3073;42.660;23.316;2022-07-06T01:45:14;94436.41;;;19.24;100.00
6090;BME280;3073;42.660;23.316;2022-07-06T01:47:41;94431.41;;;19.27;100.00
6090;BME280;3073;42.660;23.316;2022-07-06T01:50:08;94437.81;;;19.30;100.00
6090;BME280;3073;42.660;23.316;2022-07-06T01:52:36;94437.34;;;19.28;100.00
6090;BME280;3073;42.660;23.316;2022-07-06T01:55:05;94442.94;;;19.21;100.00
6090;BME280;3073;42.660;23.316;2022-07-06T01:57:32;94452.09;;;19.27;100.00
6090;BME280;3073;42.660;23.316;2022-07-06T01:59:59;94454.56;;;19.32;100.00
6090;BME280;3073;42.660;23.316;2022-07-06T02:02:26;94453.81;;;19.32;100.00
6090;BME280;3073;42.660;23.316;2022-07-06T02:04:53;94451.25;;;19.18;100.00
6090;BME280;3073;42.660;23.316;2022-07-06T02:07:20;94454.41;;;19.01;100.00
6090;BME280;3073;42.660;23.316;2022-07-06T02:09:46;94452.91;;;19.00;100.00
6090;BME280;3073;42.660;23.316;2022-07-06T02:12:15;94456.81;;;19.12;100.00
6090;BME280;3073;42.660;23.316;2022-07-06T02:14:41;94446.00;;;19.10;100.00
6090;BME280;3073;42.660;23.316;2022-07-06T02:17:08;94449.19;;;18.93;100.00
6090;BME280;3073;42.660;23.316;2022-07-06T02:19:35;94446.66;;;19.01;100.00
6090;BME280;3073;42.660;23.316;2022-07-06T02:22:02;94453.00;;;18.95;100.00
6090;BME280;3073;42.660;23.316;2022-07-06T02:24:29;94453.56;;;19.06;100.00
6090;BME280;3073;42.660;23.316;2022-07-06T02:26:56;94453.97;;;18.99;100.00
6090;BME280;3073;42.660;23.316;2022-07-06T02:29:24;94454.81;;;19.09;100.00
6090;BME280;3073;42.660;23.316;2022-07-06T02:31:51;94445.63;;;18.89;100.00
6090;BME280;3073;42.660;23.316;2022-07-06T02:34:18;94448.13;;;18.94;100.00
6090;BME280;3073;42.660;23.316;2022-07-06T02:36:45;94452.34;;;19.03;100.00
6090;BME280;3073;42.660;23.316;2022-07-06T02:39:12;94446.84;;;19.05;100.00
6090;BME280;3073;42.660;23.316;2022-07-06T02:41:39;94454.72;;;19.14;100.00
6090;BME280;3073;42.660;23.316;2022-07-06T02:44:05;94448.50;;;19.15;100.00
6090;BME280;3073;42.660;23.316;2022-07-06T02:46:34;94452.31;;;19.17;100.00
6090;BME280;3073;42.660;23.316;2022-07-06T02:49:01;94448.97;;;19.17;100.00
6090;BME280;3073;42.660;23.316;2022-07-06T02:51:28;94447.78;;;19.23;100.00
6090;BME280;3073;42.660;23.316;2022-07-06T02:53:54;94456.41;;;19.18;100.00
6090;BME280;3073;42.660;23.316;2022-07-06T02:56:21;94462.81;;;19.34;100.00
6090;BME280;3073;42.660;23.316;2022-07-06T02:58:48;94463.56;;;19.35;100.00
6090;BME280;3073;42.660;23.316;2022-07-06T03:01:15;94462.53;;;19.36;100.00
6090;BME280;3073;42.660;23.316;2022-07-06T03:03:44;94460.53;;;19.33;100.00
6090;BME280;3073;42.660;23.316;2022-07-06T03:06:10;94455.53;;;19.36;100.00
6090;BME280;3073;42.660;23.316;2022-07-06T03:08:37;94453.63;;;19.28;100.00
6090;BME280;3073;42.660;23.316;2022-07-06T03:11:04;94458.41;;;19.35;100.00
6090;BME280;3073;42.660;23.316;2022-07-06T03:13:31;94455.53;;;19.36;100.00
6090;BME280;3073;42.660;23.316;2022-07-06T03:15:59;94463.75;;;19.38;100.00
6090;BME280;3073;42.660;23.316;2022-07-06T03:18:27;94468.19;;;19.38;100.00
6090;BME280;3073;42.660;23.316;2022-07-06T03:20:55;94468.00;;;19.48;100.00
6090;BME280;3073;42.660;23.316;2022-07-06T03:23:22;94474.63;;;19.40;100.00
6090;BME280;3073;42.660;23.316;2022-07-06T03:25:49;94483.16;;;19.41;100.00
6090;BME280;3073;42.660;23.316;2022-07-06T03:28:16;94485.59;;;19.60;100.00
6090;BME280;3073;42.660;23.316;2022-07-06T03:30:43;94486.47;;;19.55;100.00
6090;BME280;3073;42.660;23.316;2022-07-06T03:33:09;94489.84;;;19.42;100.00
6090;BME280;3073;42.660;23.316;2022-07-06T03:35:37;94496.63;;;19.51;100.00
6090;BME280;3073;42.660;23.316;2022-07-06T03:38:05;94502.38;;;19.35;100.00
6090;BME280;3073;42.660;23.316;2022-07-06T03:40:33;94496.75;;;19.46;100.00
6090;BME280;3073;42.660;23.316;2022-07-06T03:43:00;94506.72;;;19.26;100.00
6090;BME280;3073;42.660;23.316;2022-07-06T03:45:26;94501.53;;;19.26;100.00
6090;BME280;3073;42.660;23.316;2022-07-06T03:47:53;94505.75;;;19.35;100.00
6090;BME280;3073;42.660;23.316;2022-07-06T03:50:20;94504.03;;;19.31;100.00
6090;BME280;3073;42.660;23.316;2022-07-06T03:52:47;94504.25;;;19.21;100.00
6090;BME280;3073;42.660;23.316;2022-07-06T03:55:15;94494.63;;;19.35;100.00
6090;BME280;3073;42.660;23.316;2022-07-06T03:57:42;94497.31;;;19.30;100.00
6090;BME280;3073;42.660;23.316;2022-07-06T04:00:10;94501.72;;;19.29;100.00
6090;BME280;3073;42.660;23.316;2022-07-06T04:02:37;94500.38;;;19.45;100.00
6090;BME280;3073;42.660;23.316;2022-07-06T04:05:04;94507.47;;;19.40;100.00
6090;BME280;3073;42.660;23.316;2022-07-06T04:07:31;94506.63;;;19.31;100.00
6090;BME280;3073;42.660;23.316;2022-07-06T04:09:58;94515.81;;;19.37;100.00
6090;BME280;3073;42.660;23.316;2022-07-06T04:12:27;94517.25;;;19.43;100.00
6090;BME280;3073;42.660;23.316;2022-07-06T04:14:56;94517.63;;;19.50;100.00
6090;BME280;3073;42.660;23.316;2022-07-06T04:17:23;94509.88;;;19.50;100.00
6090;BME280;3073;42.660;23.316;2022-07-06T04:20:08;94522.22;;;19.53;100.00
6090;BME280;3073;42.660;23.316;2022-07-06T04:22:37;94518.75;;;19.71;100.00
6090;BME280;3073;42.660;23.316;2022-07-06T04:25:05;94521.34;;;19.71;100.00
6090;BME280;3073;42.660;23.316;2022-07-06T04:27:33;94520.81;;;19.83;100.00
6090;BME280;3073;42.660;23.316;2022-07-06T04:30:00;94522.75;;;19.77;100.00
6090;BME280;3073;42.660;23.316;2022-07-06T04:32:28;94526.34;;;19.68;100.00
6090;BME280;3073;42.660;23.316;2022-07-06T04:34:54;94530.00;;;19.89;100.00
6090;BME280;3073;42.660;23.316;2022-07-06T04:37:21;94541.84;;;20.03;100.00
6090;BME280;3073;42.660;23.316;2022-07-06T04:39:48;94546.28;;;20.03;100.00
6090;BME280;3073;42.660;23.316;2022-07-06T04:42:15;94542.88;;;19.80;100.00
6090;BME280;3073;42.660;23.316;2022-07-06T04:44:43;94547.19;;;19.85;100.00
6090;BME280;3073;42.660;23.316;2022-07-06T04:47:11;94557.81;;;19.97;100.00
6090;BME280;3073;42.660;23.316;2022-07-06T04:49:38;94563.47;;;19.85;100.00
6090;BME280;3073;42.660;23.316;2022-07-06T04:52:05;94567.81;;;19.76;100.00
6090;BME280;3073;42.660;23.316;2022-07-06T04:54:32;94575.34;;;19.64;100.00
6090;BME280;3073;42.660;23.316;2022-07-06T04:56:59;94580.34;;;19.47;100.00
6090;BME280;3073;42.660;23.316;2022-07-06T04:59:26;94580.97;;;19.25;100.00
6090;BME280;3073;42.660;23.316;2022-07-06T05:01:54;94585.75;;;19.18;100.00
6090;BME280;3073;42.660;23.316;2022-07-06T05:04:22;94586.31;;;19.01;100.00
6090;BME280;3073;42.660;23.316;2022-07-06T05:06:56;94579.34;;;19.16;100.00
6090;BME280;3073;42.660;23.316;2022-07-06T05:09:23;94582.03;;;19.11;100.00
6090;BME280;3073;42.660;23.316;2022-07-06T05:11:50;94584.50;;;19.16;100.00
6090;BME280;3073;42.660;23.316;2022-07-06T05:14:17;94577.25;;;19.31;100.00
6090;BME280;3073;42.660;23.316;2022-07-06T05:16:44;94588.44;;;19.13;100.00
6090;BME280;3073;42.660;23.316;2022-07-06T05:19:12;94589.41;;;19.03;100.00
6090;BME280;3073;42.660;23.316;2022-07-06T05:21:39;94592.19;;;19.21;100.00
6090;BME280;3073;42.660;23.316;2022-07-06T05:24:06;94598.63;;;19.37;100.00
6090;BME280;3073;42.660;23.316;2022-07-06T05:26:33;94598.78;;;19.13;100.00
6090;BME280;3073;42.660;23.316;2022-07-06T05:29:00;94606.84;;;19.39;100.00
6090;BME280;3073;42.660;23.316;2022-07-06T05:31:27;94603.13;;;19.72;100.00
6090;BME280;3073;42.660;23.316;2022-07-06T05:33:54;94605.03;;;19.80;100.00
6090;BME280;3073;42.660;23.316;2022-07-06T05:36:23;94608.28;;;19.72;100.00
6090;BME280;3073;42.660;23.316;2022-07-06T05:38:50;94608.25;;;19.99;100.00
6090;BME280;3073;42.660;23.316;2022-07-06T05:41:16;94610.69;;;20.32;100.00
6090;BME280;3073;42.660;23.316;2022-07-06T05:43:43;94612.69;;;20.57;100.00
6090;BME280;3073;42.660;23.316;2022-07-06T05:46:10;94613.72;;;20.47;100.00
6090;BME280;3073;42.660;23.316;2022-07-06T05:48:37;94615.50;;;20.69;100.00
6090;BME280;3073;42.660;23.316;2022-07-06T05:51:23;94615.75;;;20.81;100.00
6090;BME280;3073;42.660;23.316;2022-07-06T05:53:50;94621.97;;;21.25;100.00
6090;BME280;3073;42.660;23.316;2022-07-06T05:56:17;94622.75;;;21.34;100.00
6090;BME280;3073;42.660;23.316;2022-07-06T05:58:44;94620.94;;;21.43;100.00
6090;BME280;3073;42.660;23.316;2022-07-06T06:01:10;94623.72;;;21.55;100.00
6090;BME280;3073;42.660;23.316;2022-07-06T06:03:37;94620.44;;;21.32;100.00
6090;BME280;3073;42.660;23.316;2022-07-06T06:06:04;94626.13;;;21.34;100.00
6090;BME280;3073;42.660;23.316;2022-07-06T06:08:33;94620.06;;;21.56;100.00
6090;BME280;3073;42.660;23.316;2022-07-06T06:10:59;94622.72;;;21.73;100.00
6090;BME280;3073;42.660;23.316;2022-07-06T06:13:26;94630.22;;;21.75;100.00
6090;BME280;3073;42.660;23.316;2022-07-06T06:15:53;94624.16;;;21.40;100.00
6090;BME280;3073;42.660;23.316;2022-07-06T06:18:20;94617.41;;;21.39;100.00
6090;BME280;3073;42.660;23.316;2022-07-06T06:20:47;94620.94;;;21.34;100.00
6090;BME280;3073;42.660;23.316;2022-07-06T06:23:14;94621.13;;;21.46;100.00
6090;BME280;3073;42.660;23.316;2022-07-06T06:25:42;94622.16;;;21.45;100.00
6090;BME280;3073;42.660;23.316;2022-07-06T06:28:11;94622.41;;;21.27;100.00
6090;BME280;3073;42.660;23.316;2022-07-06T06:30:38;94620.84;;;21.17;100.00
6090;BME280;3073;42.660;23.316;2022-07-06T06:33:10;94621.53;;;21.09;100.00
6090;BME280;3073;42.660;23.316;2022-07-06T06:35:37;94618.25;;;21.17;100.00
6090;BME280;3073;42.660;23.316;2022-07-06T06:38:04;94611.06;;;21.14;100.00
6090;BME280;3073;42.660;23.316;2022-07-06T06:40:31;94616.91;;;21.28;100.00
6090;BME280;3073;42.660;23.316;2022-07-06T06:42:59;94610.34;;;21.00;100.00
6090;BME280;3073;42.660;23.316;2022-07-06T06:45:26;94610.63;;;20.98;100.00
6090;BME280;3073;42.660;23.316;2022-07-06T06:47:53;94609.75;;;21.03;100.00
6090;BME280;3073;42.660;23.316;2022-07-06T06:50:20;94609.38;;;21.10;100.00
6090;BME280;3073;42.660;23.316;2022-07-06T06:52:48;94609.78;;;21.34;100.00
6090;BME280;3073;42.660;23.316;2022-07-06T06:55:15;94610.50;;;21.26;100.00
6090;BME280;3073;42.660;23.316;2022-07-06T06:57:42;94609.78;;;21.34;100.00
6090;BME280;3073;42.660;23.316;2022-07-06T07:00:11;94611.56;;;21.64;100.00
6090;BME280;3073;42.660;23.316;2022-07-06T07:02:39;94618.69;;;22.06;100.00
6090;BME280;3073;42.660;23.316;2022-07-06T07:05:06;94606.91;;;22.52;100.00
6090;BME280;3073;42.660;23.316;2022-07-06T07:07:34;94614.56;;;22.40;100.00
6090;BME280;3073;42.660;23.316;2022-07-06T07:10:02;94616.09;;;22.06;100.00
6090;BME280;3073;42.660;23.316;2022-07-06T07:12:29;94614.56;;;21.97;100.00
6090;BME280;3073;42.660;23.316;2022-07-06T07:14:56;94623.59;;;22.17;100.00
6090;BME280;3073;42.660;23.316;2022-07-06T07:17:25;94620.91;;;21.82;100.00
6090;BME280;3073;42.660;23.316;2022-07-06T07:19:52;94615.94;;;21.55;100.00
6090;BME280;3073;42.660;23.316;2022-07-06T07:22:18;94616.78;;;21.02;100.00
6090;BME280;3073;42.660;23.316;2022-07-06T07:24:45;94614.69;;;20.82;100.00
6090;BME280;3073;42.660;23.316;2022-07-06T07:27:13;94611.03;;;20.83;100.00
6090;BME280;3073;42.660;23.316;2022-07-06T07:29:40;94603.72;;;20.85;100.00
6090;BME280;3073;42.660;23.316;2022-07-06T07:32:08;94610.75;;;20.85;100.00
6090;BME280;3073;42.660;23.316;2022-07-06T07:34:36;94613.28;;;20.76;100.00
6090;BME280;3073;42.660;23.316;2022-07-06T07:37:03;94618.25;;;21.17;100.00
6090;BME280;3073;42.660;23.316;2022-07-06T07:39:30;94618.59;;;21.24;100.00
6090;BME280;3073;42.660;23.316;2022-07-06T07:41:57;94612.50;;;21.77;100.00
6090;BME280;3073;42.660;23.316;2022-07-06T07:44:24;94616.84;;;22.50;100.00
6090;BME280;3073;42.660;23.316;2022-07-06T07:46:52;94624.16;;;23.75;100.00
6090;BME280;3073;42.660;23.316;2022-07-06T07:49:19;94623.47;;;23.66;100.00
6090;BME280;3073;42.660;23.316;2022-07-06T07:51:48;94610.34;;;24.33;100.00
6090;BME280;3073;42.660;23.316;2022-07-06T07:54:15;94620.00;;;23.83;100.00
6090;BME280;3073;42.660;23.316;2022-07-06T07:56:42;94621.78;;;24.20;100.00
6090;BME280;3073;42.660;23.316;2022-07-06T07:59:09;94613.50;;;24.39;100.00
6090;BME280;3073;42.660;23.316;2022-07-06T08:01:36;94613.69;;;25.44;100.00
6090;BME280;3073;42.660;23.316;2022-07-06T08:04:03;94610.56;;;25.51;100.00
6090;BME280;3073;42.660;23.316;2022-07-06T08:06:30;94616.16;;;26.13;100.00
6090;BME280;3073;42.660;23.316;2022-07-06T08:08:58;94615.03;;;26.39;100.00
6090;BME280;3073;42.660;23.316;2022-07-06T08:11:26;94612.22;;;26.32;100.00
6090;BME280;3073;42.660;23.316;2022-07-06T08:13:52;94611.94;;;26.21;100.00
6090;BME280;3073;42.660;23.316;2022-07-06T08:16:19;94622.84;;;25.38;100.00
6090;BME280;3073;42.660;23.316;2022-07-06T08:18:46;94620.59;;;25.61;100.00
6090;BME280;3073;42.660;23.316;2022-07-06T08:21:13;94626.13;;;25.84;100.00
6090;BME280;3073;42.660;23.316;2022-07-06T08:23:40;94623.59;;;26.11;100.00
6090;BME280;3073;42.660;23.316;2022-07-06T08:26:08;94619.66;;;25.08;100.00
6090;BME280;3073;42.660;23.316;2022-07-06T08:28:36;94612.63;;;24.35;100.00
6090;BME280;3073;42.660;23.316;2022-07-06T08:31:03;94628.72;;;23.87;100.00
6090;BME280;3073;42.660;23.316;2022-07-06T08:33:30;94622.25;;;23.64;100.00
6090;BME280;3073;42.660;23.316;2022-07-06T08:35:57;94619.47;;;24.19;100.00
6090;BME280;3073;42.660;23.316;2022-07-06T08:38:24;94615.53;;;24.54;100.00
6090;BME280;3073;42.660;23.316;2022-07-06T08:40:51;94616.25;;;24.22;100.00
6090;BME280;3073;42.660;23.316;2022-07-06T08:43:20;94620.91;;;25.02;100.00
6090;BME280;3073;42.660;23.316;2022-07-06T08:45:49;94610.06;;;25.13;100.00
6090;BME280;3073;42.660;23.316;2022-07-06T08:48:18;94607.38;;;25.33;100.00
6090;BME280;3073;42.660;23.316;2022-07-06T08:50:45;94613.03;;;25.35;100.00
6090;BME280;3073;42.660;23.316;2022-07-06T08:53:12;94612.69;;;25.49;100.00
6090;BME280;3073;42.660;23.316;2022-07-06T08:55:39;94619.09;;;26.12;100.00
6090;BME280;3073;42.660;23.316;2022-07-06T08:58:07;94619.72;;;25.81;100.00
6090;BME280;3073;42.660;23.316;2022-07-06T09:00:36;94613.13;;;24.82;100.00
6090;BME280;3073;42.660;23.316;2022-07-06T09:03:03;94605.25;;;23.20;100.00
6090;BME280;3073;42.660;23.316;2022-07-06T09:05:32;94603.44;;;23.87;100.00
6090;BME280;3073;42.660;23.316;2022-07-06T09:08:02;94612.19;;;23.53;100.00
6090;BME280;3073;42.660;23.316;2022-07-06T09:10:29;94614.88;;;23.95;100.00
6090;BME280;3073;42.660;23.316;2022-07-06T09:13:02;94617.50;;;24.36;100.00
6090;BME280;3073;42.660;23.316;2022-07-06T09:15:30;94606.22;;;24.65;100.00
6090;BME280;3073;42.660;23.316;2022-07-06T09:17:58;94602.47;;;24.21;100.00
6090;BME280;3073;42.660;23.316;2022-07-06T09:20:26;94607.63;;;24.00;100.00
6090;BME280;3073;42.660;23.316;2022-07-06T09:22:57;94613.72;;;23.84;100.00
6090;BME280;3073;42.660;23.316;2022-07-06T09:25:25;94605.91;;;23.84;100.00
6090;BME280;3073;42.660;23.316;2022-07-06T09:27:52;94604.22;;;24.29;100.00
6090;BME280;3073;42.660;23.316;2022-07-06T09:30:21;94607.25;;;24.52;100.00
6090;BME280;3073;42.660;23.316;2022-07-06T09:32:50;94607.09;;;24.69;100.00
6090;BME280;3073;42.660;23.316;2022-07-06T09:35:25;94604.19;;;25.03;100.00
6090;BME280;3073;42.660;23.316;2022-07-06T09:38:04;94606.78;;;24.91;100.00
6090;BME280;3073;42.660;23.316;2022-07-06T09:40:32;94607.06;;;25.47;100.00
6090;BME280;3073;42.660;23.316;2022-07-06T09:43:10;94609.78;;;25.38;100.00
6090;BME280;3073;42.660;23.316;2022-07-06T09:45:39;94607.03;;;25.23;100.00
6090;BME280;3073;42.660;23.316;2022-07-06T09:48:08;94600.94;;;25.31;100.00
6090;BME280;3073;42.660;23.316;2022-07-06T09:50:41;94597.75;;;26.50;100.00
6090;BME280;3073;42.660;23.316;2022-07-06T09:53:09;94596.09;;;26.30;100.00
6090;BME280;3073;42.660;23.316;2022-07-06T09:55:35;94595.09;;;27.05;100.00
6090;BME280;3073;42.660;23.316;2022-07-06T09:58:03;94585.94;;;27.58;100.00
6090;BME280;3073;42.660;23.316;2022-07-06T10:00:30;94596.16;;;27.98;100.00
6090;BME280;3073;42.660;23.316;2022-07-06T10:03:00;94602.38;;;26.96;100.00
6090;BME280;3073;42.660;23.316;2022-07-06T10:05:27;94600.06;;;26.11;100.00
6090;BME280;3073;42.660;23.316;2022-07-06T10:07:58;94597.47;;;26.67;100.00
6090;BME280;3073;42.660;23.316;2022-07-06T10:10:27;94601.63;;;27.43;100.00
6090;BME280;3073;42.660;23.316;2022-07-06T10:12:55;94594.22;;;28.69;100.00
6090;BME280;3073;42.660;23.316;2022-07-06T10:15:23;94591.66;;;28.72;95.65
6090;BME280;3073;42.660;23.316;2022-07-06T10:17:51;94592.81;;;28.36;96.11
6090;BME280;3073;42.660;23.316;2022-07-06T10:20:19;94589.00;;;28.53;100.00
6090;BME280;3073;42.660;23.316;2022-07-06T10:22:47;94585.16;;;28.47;95.22
6090;BME280;3073;42.660;23.316;2022-07-06T10:25:17;94584.66;;;27.87;99.93
6090;BME280;3073;42.660;23.316;2022-07-06T10:27:45;94588.34;;;28.18;96.18
6090;BME280;3073;42.660;23.316;2022-07-06T10:30:13;94574.78;;;27.81;100.00
6090;BME280;3073;42.660;23.316;2022-07-06T10:32:44;94585.06;;;27.54;100.00
6090;BME280;3073;42.660;23.316;2022-07-06T10:35:12;94579.34;;;27.84;99.51
6090;BME280;3073;42.660;23.316;2022-07-06T10:37:40;94570.03;;;28.21;100.00
6090;BME280;3073;42.660;23.316;2022-07-06T10:40:08;94570.09;;;29.28;92.68
6090;BME280;3073;42.660;23.316;2022-07-06T10:42:58;94570.78;;;29.47;87.99
6090;BME280;3073;42.660;23.316;2022-07-06T10:45:50;94574.22;;;30.04;84.19
6090;BME280;3073;42.660;23.316;2022-07-06T10:48:19;94576.47;;;29.79;81.79
6090;BME280;3073;42.660;23.316;2022-07-06T10:50:48;94573.00;;;29.45;79.01
6090;BME280;3073;42.660;23.316;2022-07-06T10:53:16;94580.19;;;29.48;83.17
6090;BME280;3073;42.660;23.316;2022-07-06T10:55:45;94578.81;;;28.29;90.52
6090;BME280;3073;42.660;23.316;2022-07-06T10:58:34;94570.41;;;28.81;93.41
6090;BME280;3073;42.660;23.316;2022-07-06T11:01:02;94569.59;;;28.99;87.21
6090;BME280;3073;42.660;23.316;2022-07-06T11:03:30;94566.16;;;28.34;94.07
6090;BME280;3073;42.660;23.316;2022-07-06T11:05:58;94572.75;;;29.54;89.02
6090;BME280;3073;42.660;23.316;2022-07-06T11:08:46;94571.22;;;29.53;83.16
6090;BME280;3073;42.660;23.316;2022-07-06T11:11:15;94568.25;;;29.54;87.83
6090;BME280;3073;42.660;23.316;2022-07-06T11:13:48;94569.91;;;28.94;85.38
6090;BME280;3073;42.660;23.316;2022-07-06T11:16:16;94572.13;;;30.17;81.18
6090;BME280;3073;42.660;23.316;2022-07-06T11:18:46;94578.94;;;30.51;74.94
6090;BME280;3073;42.660;23.316;2022-07-06T11:21:22;94560.53;;;29.91;74.30
6090;BME280;3073;42.660;23.316;2022-07-06T11:23:50;94566.06;;;28.88;81.90
6090;BME280;3073;42.660;23.316;2022-07-06T11:26:17;94556.25;;;30.43;78.57
6090;BME280;3073;42.660;23.316;2022-07-06T11:28:46;94565.97;;;30.05;73.79
6090;BME280;3073;42.660;23.316;2022-07-06T11:31:16;94559.19;;;30.38;69.12
6090;BME280;3073;42.660;23.316;2022-07-06T11:33:46;94563.44;;;29.34;77.63
6090;BME280;3073;42.660;23.316;2022-07-06T11:36:15;94564.78;;;30.33;73.52
6090;BME280;3073;42.660;23.316;2022-07-06T11:38:42;94557.19;;;29.68;70.04
6090;BME280;3073;42.660;23.316;2022-07-06T11:41:10;94556.75;;;29.92;74.84
6090;BME280;3073;42.660;23.316;2022-07-06T11:43:40;94539.22;;;30.03;68.81
6090;BME280;3073;42.660;23.316;2022-07-06T11:46:27;94537.66;;;28.97;71.89
6090;BME280;3073;42.660;23.316;2022-07-06T11:48:56;94528.00;;;29.80;70.49
6090;BME280;3073;42.660;23.316;2022-07-06T11:51:24;94529.38;;;29.18;70.16
6090;BME280;3073;42.660;23.316;2022-07-06T11:53:52;94537.44;;;29.29;73.88
6090;BME280;3073;42.660;23.316;2022-07-06T11:56:20;94527.66;;;29.52;74.40
6090;BME280;3073;42.660;23.316;2022-07-06T11:58:51;94527.72;;;29.59;73.96
6090;BME280;3073;42.660;23.316;2022-07-06T12:01:21;94521.44;;;29.93;68.40
6090;BME280;3073;42.660;23.316;2022-07-06T12:03:51;94521.97;;;28.78;73.22
6090;BME280;3073;42.660;23.316;2022-07-06T12:06:19;94516.22;;;29.41;74.17
6090;BME280;3073;42.660;23.316;2022-07-06T12:08:48;94526.91;;;29.06;70.15
6090;BME280;3073;42.660;23.316;2022-07-06T12:11:24;94521.19;;;28.17;80.23
6090;BME280;3073;42.660;23.316;2022-07-06T12:13:52;94537.25;;;29.41;78.44
6090;BME280;3073;42.660;23.316;2022-07-06T12:16:21;94531.34;;;29.77;73.78
6090;BME280;3073;42.660;23.316;2022-07-06T12:18:51;94530.31;;;29.82;72.68
6090;BME280;3073;42.660;23.316;2022-07-06T12:21:19;94531.69;;;30.32;70.12
6090;BME280;3073;42.660;23.316;2022-07-06T12:23:48;94529.19;;;30.83;68.32
6090;BME280;3073;42.660;23.316;2022-07-06T12:26:17;94529.09;;;30.02;69.84
6090;BME280;3073;42.660;23.316;2022-07-06T12:28:45;94526.50;;;30.76;69.14
6090;BME280;3073;42.660;23.316;2022-07-06T12:31:30;94524.53;;;28.97;70.51
6090;BME280;3073;42.660;23.316;2022-07-06T12:33:59;94516.75;;;29.53;69.66
6090;BME280;3073;42.660;23.316;2022-07-06T12:36:26;94530.00;;;30.17;67.81
6090;BME280;3073;42.660;23.316;2022-07-06T12:38:53;94524.41;;;28.90;73.72
6090;BME280;3073;42.660;23.316;2022-07-06T12:41:43;94524.44;;;27.09;83.00
6090;BME280;3073;42.660;23.316;2022-07-06T12:44:12;94522.25;;;27.27;91.88
6090;BME280;3073;42.660;23.316;2022-07-06T12:46:40;94516.78;;;27.67;89.13
6090;BME280;3073;42.660;23.316;2022-07-06T12:49:19;94512.28;;;27.48;86.91
6090;BME280;3073;42.660;23.316;2022-07-06T12:51:59;94508.75;;;28.13;84.69
6090;BME280;3073;42.660;23.316;2022-07-06T12:54:31;94509.31;;;28.42;79.75
6090;BME280;3073;42.660;23.316;2022-07-06T12:57:07;94509.69;;;29.08;78.33
6090;BME280;3073;42.660;23.316;2022-07-06T12:59:38;94508.72;;;28.71;72.56
6090;BME280;3073;42.660;23.316;2022-07-06T13:02:06;94505.66;;;29.14;73.26
6090;BME280;3073;42.660;23.316;2022-07-06T13:04:36;94505.50;;;29.04;71.26
6090;BME280;3073;42.660;23.316;2022-07-06T13:07:04;94509.91;;;28.54;73.58
6090;BME280;3073;42.660;23.316;2022-07-06T13:09:34;94496.28;;;28.07;80.07